createdAt,value
2023-04-07T00:04:00.271Z,101710.31
2023-04-07T00:08:57.053Z,101717.38
2023-04-07T00:13:53.616Z,101710.84
2023-04-07T00:18:50.252Z,101702.09
2023-04-07T00:23:47.552Z,101712.09
2023-04-07T00:28:43.982Z,101702.84
2023-04-07T00:33:40.480Z,101709.03
2023-04-07T00:38:36.920Z,101712.78
2023-04-07T00:43:33.522Z,101706.75
2023-04-07T00:48:30.882Z,101712.06
2023-04-07T00:53:27.283Z,101710.41
2023-04-07T00:58:23.804Z,101699.47
2023-04-07T01:03:33.928Z,101710.28
2023-04-07T01:08:38.282Z,101704.25
2023-04-07T01:13:41.111Z,101706.03
2023-04-07T01:18:39.424Z,101701.03
2023-04-07T01:23:57.114Z,101702.50
2023-04-07T01:29:27.501Z,101701.50
2023-04-07T01:34:26.663Z,101702.53
2023-04-07T01:39:24.164Z,101701.88
2023-04-07T01:44:21.114Z,101700.38
2023-04-07T01:49:18.619Z,101705.97
2023-04-07T01:54:15.267Z,101706.81
2023-04-07T01:59:12.220Z,101704.50
2023-04-07T02:04:13.118Z,101703.59
2023-04-07T02:09:13.020Z,101707.44
2023-04-07T02:14:09.966Z,101706.31
2023-04-07T02:19:06.555Z,101701.81
2023-04-07T02:24:06.634Z,101710.09
2023-04-07T02:29:04.097Z,101710.66
2023-04-07T02:34:00.851Z,101719.25
2023-04-07T02:38:57.291Z,101715.50
2023-04-07T02:43:53.973Z,101723.53
2023-04-07T02:48:51.555Z,101724.00
2023-04-07T02:53:47.949Z,101721.41
2023-04-07T02:58:44.403Z,101727.44
2023-04-07T03:03:42.245Z,101724.50
2023-04-07T03:08:38.795Z,101727.50
2023-04-07T03:13:35.213Z,101722.84
2023-04-07T03:18:31.732Z,101719.72
2023-04-07T03:23:29.300Z,101728.88
2023-04-07T03:28:25.757Z,101729.47
2023-04-07T03:33:22.182Z,101734.09
2023-04-07T03:38:18.681Z,101729.75
2023-04-07T03:43:16.123Z,101736.50
2023-04-07T03:48:12.705Z,101748.47
2023-04-07T03:53:09.349Z,101755.63
2023-04-07T03:58:06.114Z,101759.28
2023-04-07T04:03:02.904Z,101752.47
2023-04-07T04:07:59.364Z,101758.59
2023-04-07T04:12:55.790Z,101768.44
2023-04-07T04:17:52.245Z,101759.28
2023-04-07T04:22:48.701Z,101755.13
2023-04-07T04:27:45.341Z,101765.19
2023-04-07T04:32:41.755Z,101778.59
2023-04-07T04:37:38.211Z,101770.59
2023-04-07T04:42:35.472Z,101770.59
2023-04-07T04:47:31.927Z,101786.59
2023-04-07T04:52:28.726Z,101792.94
2023-04-07T04:57:25.229Z,101797.88
2023-04-07T05:02:22.055Z,101800.00
2023-04-07T05:07:18.580Z,101799.63
2023-04-07T05:12:15.774Z,101806.09
2023-04-07T05:17:12.200Z,101805.59
2023-04-07T05:22:08.630Z,101815.47
2023-04-07T05:27:05.150Z,101827.91
2023-04-07T05:32:01.620Z,101837.56
2023-04-07T05:36:58.179Z,101835.53
2023-04-07T05:41:54.585Z,101835.66
2023-04-07T05:46:51.051Z,101838.34
2023-04-07T05:51:48.801Z,101859.84
2023-04-07T05:56:45.735Z,101862.75
2023-04-07T06:01:42.636Z,101864.97
2023-04-07T06:06:39.394Z,101870.16
2023-04-07T06:11:35.841Z,101863.91
2023-04-07T06:16:32.361Z,101872.47
2023-04-07T06:21:28.867Z,101877.63
2023-04-07T06:26:25.458Z,101885.81
2023-04-07T06:31:21.914Z,101893.06
2023-04-07T06:36:18.509Z,101891.38
2023-04-07T06:41:17.055Z,101904.28
2023-04-07T06:46:13.509Z,101901.19
2023-04-07T06:51:09.984Z,101900.91
2023-04-07T06:56:11.322Z,101899.78
2023-04-07T07:01:07.837Z,101906.03
2023-04-07T07:06:04.484Z,101910.97
2023-04-07T07:11:00.962Z,101912.28
2023-04-07T07:15:57.469Z,101909.81
2023-04-07T07:20:53.977Z,101910.59
2023-04-07T07:25:50.458Z,101913.03
2023-04-07T07:30:46.949Z,101912.88
2023-04-07T07:35:43.464Z,101918.47
2023-04-07T07:40:39.902Z,101921.38
2023-04-07T07:45:36.402Z,101930.31
2023-04-07T07:50:32.788Z,101926.53
2023-04-07T07:55:29.281Z,101930.75
2023-04-07T08:00:25.813Z,101939.03
2023-04-07T08:05:23.339Z,101943.00
2023-04-07T08:10:20.222Z,101936.31
2023-04-07T08:15:17.023Z,101946.47
2023-04-07T08:20:13.538Z,101947.63
2023-04-07T08:25:10.664Z,101957.56
2023-04-07T08:30:07.522Z,101952.72
2023-04-07T08:35:04.190Z,101956.13
2023-04-07T08:40:01.976Z,101959.44
2023-04-07T08:45:03.321Z,101956.72
2023-04-07T08:50:05.655Z,101960.31
2023-04-07T08:55:04.263Z,101956.25
2023-04-07T09:00:05.694Z,101966.97
2023-04-07T09:05:07.166Z,101959.06
2023-04-07T09:10:04.354Z,101954.63
2023-04-07T09:15:01.035Z,101951.84
2023-04-07T09:19:59.193Z,101956.78
2023-04-07T09:25:16.527Z,101959.19
2023-04-07T09:30:15.569Z,101953.44
2023-04-07T09:35:11.942Z,101954.19
2023-04-07T09:40:08.990Z,101949.53
2023-04-07T09:45:05.788Z,101956.25
2023-04-07T09:50:06.942Z,101946.63
2023-04-07T09:55:06.323Z,101951.47
2023-04-07T10:00:03.078Z,101946.88
2023-04-07T10:04:59.735Z,101945.53
2023-04-07T10:09:57.550Z,101945.16
2023-04-07T10:14:55.628Z,101951.19
2023-04-07T10:19:53.016Z,101955.75
2023-04-07T10:25:07.124Z,101954.31
2023-04-07T10:30:07.226Z,101945.38
2023-04-07T10:35:03.798Z,101943.25
2023-04-07T10:40:18.660Z,101947.72
2023-04-07T10:45:15.248Z,101948.53
2023-04-07T10:50:23.508Z,101947.16
2023-04-07T10:55:33.929Z,101940.47
2023-04-07T11:00:30.341Z,101946.88
2023-04-07T11:05:26.794Z,101945.56
2023-04-07T11:10:23.393Z,101954.69
2023-04-07T11:15:22.039Z,101946.22
2023-04-07T11:20:18.441Z,101944.06
2023-04-07T11:25:21.994Z,101949.09
2023-04-07T11:30:18.488Z,101944.41
2023-04-07T11:35:16.184Z,101938.63
2023-04-07T11:40:16.644Z,101950.19
2023-04-07T11:45:18.233Z,101957.69
2023-04-07T11:50:14.614Z,101948.47
2023-04-07T11:55:22.639Z,101947.63
2023-04-07T12:00:20.694Z,101953.88
2023-04-07T12:05:17.184Z,101950.97
2023-04-07T12:10:21.460Z,101955.03
2023-04-07T12:15:17.904Z,101948.69
2023-04-07T12:20:15.427Z,101948.38
2023-04-07T12:25:11.855Z,101967.97
2023-04-07T12:30:08.626Z,101966.00
2023-04-07T12:35:06.220Z,101968.69
2023-04-07T12:40:02.787Z,101961.13
2023-04-07T12:44:59.194Z,101960.88
2023-04-07T12:49:56.214Z,101956.13
2023-04-07T12:54:53.409Z,101956.28
2023-04-07T12:59:49.851Z,101965.31
2023-04-07T13:04:46.772Z,101964.72
2023-04-07T13:09:43.498Z,101961.91
2023-04-07T13:14:52.951Z,101951.31
2023-04-07T13:19:54.331Z,101953.84
2023-04-07T13:24:50.856Z,101948.03
2023-04-07T13:29:47.480Z,101951.13
2023-04-07T13:34:44.388Z,101943.41
2023-04-07T13:39:41.129Z,101952.22
2023-04-07T13:44:39.524Z,101948.84
2023-04-07T13:49:36.362Z,101952.25
2023-04-07T13:54:32.799Z,101955.00
2023-04-07T13:59:29.248Z,101953.56
2023-04-07T14:04:25.802Z,101956.81
2023-04-07T14:09:22.265Z,101940.97
2023-04-07T14:14:18.664Z,101945.34
2023-04-07T14:19:15.434Z,101943.66
2023-04-07T14:24:11.941Z,101946.22
2023-04-07T14:29:08.505Z,101951.03
2023-04-07T14:34:05.120Z,101956.53
2023-04-07T14:39:01.996Z,101964.59
2023-04-07T14:43:58.642Z,101979.28
2023-04-07T14:48:55.852Z,101978.03
2023-04-07T14:53:55.897Z,101997.13
2023-04-07T14:58:52.440Z,101989.81
2023-04-07T15:03:49.135Z,101990.50
2023-04-07T15:08:46.660Z,101999.50
2023-04-07T15:13:43.049Z,102011.31
2023-04-07T15:18:41.944Z,102002.84
2023-04-07T15:23:39.100Z,102012.66
2023-04-07T15:28:35.898Z,102015.38
2023-04-07T15:33:32.429Z,102010.56
2023-04-07T15:38:29.318Z,102021.75
2023-04-07T15:43:25.816Z,102020.84
2023-04-07T15:48:22.258Z,102033.41
2023-04-07T15:53:18.693Z,102039.28
2023-04-07T15:58:15.314Z,102029.44
2023-04-07T16:03:11.930Z,102042.88
2023-04-07T16:08:08.422Z,102048.16
2023-04-07T16:13:04.794Z,102048.75
2023-04-07T16:18:04.684Z,102044.56
2023-04-07T16:23:01.192Z,102044.56
2023-04-07T16:27:57.677Z,102054.31
2023-04-07T16:32:54.115Z,102054.59
2023-04-07T16:37:50.662Z,102063.59
2023-04-07T16:42:47.540Z,102076.81
2023-04-07T16:47:44.574Z,102074.66
2023-04-07T16:52:41.187Z,102074.09
2023-04-07T16:57:37.569Z,102081.19
2023-04-07T17:02:34.680Z,102090.72
2023-04-07T17:07:31.361Z,102094.28
2023-04-07T17:12:27.988Z,102103.28
2023-04-07T17:17:24.420Z,102109.84
2023-04-07T17:22:20.827Z,102122.09
2023-04-07T17:27:18.022Z,102128.13
2023-04-07T17:32:14.458Z,102140.91
2023-04-07T17:37:10.918Z,102145.50
2023-04-07T17:42:07.340Z,102160.97
2023-04-07T17:47:03.766Z,102146.47
2023-04-07T17:52:00.173Z,102163.28
2023-04-07T17:56:57.887Z,102164.88
2023-04-07T18:01:54.386Z,102173.09
2023-04-07T18:06:50.953Z,102170.84
2023-04-07T18:11:47.625Z,102173.50
2023-04-07T18:16:44.006Z,102170.28
2023-04-07T18:21:40.700Z,102178.59
2023-04-07T18:26:37.583Z,102182.19
2023-04-07T18:31:34.084Z,102189.22
2023-04-07T18:36:30.593Z,102194.69
2023-04-07T18:41:27.090Z,102209.22
2023-04-07T18:46:23.597Z,102200.22
2023-04-07T18:51:20.103Z,102205.72
2023-04-07T18:56:16.700Z,102202.22
2023-04-07T19:01:13.639Z,102215.75
2023-04-07T19:06:14.309Z,102212.88
2023-04-07T19:11:12.179Z,102220.47
2023-04-07T19:16:08.872Z,102228.13
2023-04-07T19:21:06.134Z,102226.47
2023-04-07T19:26:03.229Z,102235.97
2023-04-07T19:30:59.691Z,102232.91
2023-04-07T19:35:56.268Z,102237.66
2023-04-07T19:40:53.113Z,102237.66
2023-04-07T19:45:49.597Z,102235.09
2023-04-07T19:50:48.120Z,102237.66
2023-04-07T19:55:48.920Z,102242.03
2023-04-07T20:00:48.515Z,102241.41
2023-04-07T20:05:45.307Z,102253.56
2023-04-07T20:10:41.696Z,102251.78
2023-04-07T20:15:38.127Z,102238.34
2023-04-07T20:20:34.523Z,102250.69
2023-04-07T20:25:30.962Z,102253.41
2023-04-07T20:30:27.362Z,102257.41
2023-04-07T20:35:23.922Z,102257.25
2023-04-07T20:40:20.429Z,102258.59
2023-04-07T20:45:16.925Z,102262.47
2023-04-07T20:50:13.325Z,102270.81
2023-04-07T20:55:10.478Z,102267.28
2023-04-07T21:00:07.854Z,102259.28
2023-04-07T21:05:04.816Z,102264.97
2023-04-07T21:10:01.243Z,102270.03
2023-04-07T21:14:57.637Z,102271.28
2023-04-07T21:19:54.041Z,102275.59
2023-04-07T21:24:52.808Z,102275.34
2023-04-07T21:29:49.212Z,102270.09
2023-04-07T21:34:45.773Z,102275.22
2023-04-07T21:39:42.237Z,102268.69
2023-04-07T21:44:38.984Z,102277.63
2023-04-07T21:49:38.403Z,102272.94
2023-04-07T21:54:34.844Z,102270.53
2023-04-07T21:59:31.884Z,102267.69
2023-04-07T22:04:28.676Z,102270.94
2023-04-07T22:09:27.000Z,102262.66
2023-04-07T22:14:24.974Z,102266.75
2023-04-07T22:19:21.481Z,102263.84
2023-04-07T22:24:17.991Z,102268.69
2023-04-07T22:29:14.628Z,102266.84
2023-04-07T22:34:11.277Z,102270.78
2023-04-07T22:39:08.230Z,102274.03
2023-04-07T22:44:05.226Z,102277.00
2023-04-07T22:49:01.714Z,102286.63
2023-04-07T22:53:58.145Z,102286.41
2023-04-07T22:58:54.594Z,102286.53
2023-04-07T23:03:51.185Z,102290.03
2023-04-07T23:08:47.735Z,102286.72
2023-04-07T23:13:44.232Z,102278.81
2023-04-07T23:18:41.752Z,102285.94
2023-04-07T23:23:38.907Z,102284.94
2023-04-07T23:28:35.432Z,102284.44
2023-04-07T23:33:32.069Z,102287.72
2023-04-07T23:38:28.468Z,102288.88
2023-04-07T23:43:24.908Z,102281.66
2023-04-07T23:48:21.352Z,102292.06
2023-04-07T23:53:18.051Z,102292.88
2023-04-07T23:58:14.429Z,102289.00
